Aérodrome :
LOGIN :

S'inscrire | Disclaimer

   EN    FR    IT 

 










Légende :    VFR   VFR Marginal   IFR   IFR Intensif   IFR Très Intensif
Visi : 
Plafond : 
>= 8 km
>= 3000ft
5 à 8 km
1000 à 3000 ft
1500m à 5 km
500 à 1000 ft
800 à 1500m
200 à 500 ft
< 800m
< 200 ft
Symboles :   Orages  Brouillard  Fortes neiges  Fortes précipitations  Vent > 20 kt
SIGMETs :   Divers  Orages  Givrage  Turbulence  Onde Orograph.  Cendres Volcan.







- Altitude de l'aérodrome : 425 ft
- Code IATA : DTM


EDLW - Dortmund

DERNIER METAR :
  • 230720Z 19020KT CAVOK 12/03 Q1000

METARs EXPIRÉS :
  • 230650Z 19019KT CAVOK 11/03 Q1000
  • 230620Z 20021G34KT CAVOK 11/03 Q1000
  • 230550Z 19023KT CAVOK 11/03 Q1000
  • 230520Z 19021KT CAVOK 11/03 Q1000
  • 230450Z 20018KT CAVOK 11/02 Q1000
  • 230420Z 20018KT CAVOK 10/02 Q1001

TAF TAF EDLW
Valide du 23 à 06h jusqu'au 24 à 06h UTC


230520Z 2306/2406 20015G25KT 9999 SCT035
BECMG 2306/2309 21020G30KT
BECMG 2314/2317 23012KT
BECMG 2400/2403 20007KT
TEMPO 2403/2406 35005KT RA BKN012
Pas de NOTAMs connus pour ce terrain.
1 SIGMET publié pour la FIR Langen (EDGG) :
 
Turbulence forte
EDGG SIGMET 1 VALID 230645/231000 EDZF
EDGG LANGEN FIR SEV TURB FCST APRX 80NM WID LINE BTN N4912 E00644 - N5116 E01021 2000FT/5000FT STNR NC=



MET'MAP, la Météo Aéronautique d'un coup d'oeil ! - Copyright ORBIFLY Décembre 2007 - Disclaimer

ORBIFLY MET'MAP TEAM :

Programmation & Développement : Alexandra Zaïnal
Conception & Développement : Baudouin d'Aumeries
Co-Programmation & Développement : Marc-Olivier Méhu
Soutien technique & logistique : Manuel Goepfert

Contact : metmap@orbifly.com




SOURCES & CREDITS :

   NOAA